createdAt,value
2023-05-14T00:02:44.923Z,86.74
2023-05-14T00:07:44.801Z,87.24
2023-05-14T00:12:44.737Z,86.74
2023-05-14T00:17:44.682Z,86.94
2023-05-14T00:22:44.609Z,88.55
2023-05-14T00:27:44.533Z,87.04
2023-05-14T00:32:44.518Z,84.11
2023-05-14T00:37:44.406Z,85.17
2023-05-14T00:42:44.336Z,86.53
2023-05-14T00:47:44.300Z,87.49
2023-05-14T00:52:44.187Z,86.98
2023-05-14T00:57:44.123Z,88.14
2023-05-14T01:02:44.130Z,89.47
2023-05-14T01:07:43.990Z,90.08
2023-05-14T01:12:43.918Z,90.32
2023-05-14T01:17:43.907Z,89.81
2023-05-14T01:22:43.782Z,91.03
2023-05-14T01:27:43.729Z,90.94
2023-05-14T01:32:43.689Z,90.73
2023-05-14T01:37:43.601Z,91.79
2023-05-14T01:42:43.533Z,90.94
2023-05-14T01:47:43.496Z,92.20
2023-05-14T01:52:43.385Z,92.50
2023-05-14T01:57:43.315Z,92.81
2023-05-14T02:02:43.302Z,93.26
2023-05-14T02:07:43.192Z,93.67
2023-05-14T02:12:43.147Z,91.55
2023-05-14T02:17:43.117Z,92.81
2023-05-14T02:22:42.997Z,93.98
2023-05-14T02:27:42.942Z,94.98
2023-05-14T02:32:42.962Z,95.60
2023-05-14T02:37:42.795Z,95.56
2023-05-14T02:42:42.741Z,91.81
2023-05-14T02:47:42.695Z,88.61
2023-05-14T02:52:42.596Z,88.75
2023-05-14T02:57:42.539Z,89.20
2023-05-14T03:02:42.536Z,89.92
2023-05-14T03:07:42.427Z,92.84
2023-05-14T03:12:42.364Z,95.23
2023-05-14T03:17:42.366Z,96.61
2023-05-14T03:22:42.195Z,97.22
2023-05-14T03:27:42.137Z,97.53
2023-05-14T03:32:42.062Z,95.03
2023-05-14T03:37:41.993Z,97.33
2023-05-14T03:42:41.936Z,97.88
2023-05-14T03:47:41.907Z,98.39
2023-05-14T03:52:41.778Z,98.04
2023-05-14T03:57:41.716Z,96.71
2023-05-14T04:02:41.722Z,97.22
2023-05-14T04:07:41.608Z,96.92
2023-05-14T04:12:41.523Z,96.61
2023-05-14T04:17:41.484Z,95.54
2023-05-14T04:22:41.412Z,91.49
2023-05-14T04:27:41.321Z,84.82
2023-05-14T04:32:41.301Z,80.10
2023-05-14T04:37:41.227Z,77.01
2023-05-14T04:42:41.101Z,80.37
2023-05-14T04:47:41.078Z,83.15
2023-05-14T04:52:40.998Z,76.56
2023-05-14T04:57:40.911Z,71.17
2023-05-14T05:02:40.882Z,64.09
2023-05-14T05:07:40.792Z,61.86
2023-05-14T05:12:40.718Z,59.36
2023-05-14T05:17:40.683Z,56.98
2023-05-14T05:22:40.587Z,54.24
2023-05-14T05:27:40.527Z,52.09
2023-05-14T05:32:40.472Z,51.29
2023-05-14T05:37:40.394Z,50.60
2023-05-14T05:42:40.323Z,52.69
2023-05-14T05:47:40.307Z,48.91
2023-05-14T05:52:40.200Z,48.66
2023-05-14T05:57:40.134Z,48.24
2023-05-14T06:02:40.262Z,46.36
2023-05-14T06:07:40.021Z,49.53
2023-05-14T06:12:39.940Z,49.21
2023-05-14T06:17:39.900Z,47.30
2023-05-14T06:22:39.827Z,45.23
2023-05-14T06:27:39.760Z,43.99
2023-05-14T06:32:39.719Z,43.16
2023-05-14T06:37:39.640Z,42.98
2023-05-14T06:42:39.558Z,42.64
2023-05-14T06:47:39.523Z,42.84
2023-05-14T06:52:39.428Z,41.89
2023-05-14T06:57:40.666Z,41.59
2023-05-14T07:02:39.338Z,39.81
2023-05-14T07:07:39.265Z,43.04
2023-05-14T07:12:39.200Z,44.37
2023-05-14T07:17:39.218Z,45.56
2023-05-14T07:22:40.475Z,46.35
2023-05-14T07:27:39.037Z,42.98
2023-05-14T07:32:38.987Z,44.78
2023-05-14T07:37:38.917Z,44.39
2023-05-14T07:42:40.253Z,45.05
2023-05-14T07:47:38.995Z,45.32
2023-05-14T07:52:38.755Z,46.24
2023-05-14T07:57:38.714Z,45.23
2023-05-14T08:02:38.770Z,45.12
2023-05-14T08:07:38.640Z,44.15
2023-05-14T08:12:38.437Z,44.95
2023-05-14T08:17:38.514Z,45.47
2023-05-14T08:22:38.319Z,44.25
2023-05-14T08:27:38.326Z,44.85
2023-05-14T08:32:38.206Z,44.75
2023-05-14T08:37:38.133Z,44.89
2023-05-14T08:42:38.062Z,46.05
2023-05-14T08:47:38.132Z,49.10
2023-05-14T08:52:37.950Z,48.08
2023-05-14T08:57:37.866Z,49.01
2023-05-14T09:02:37.854Z,51.10
2023-05-14T09:07:37.774Z,52.14
2023-05-14T09:12:37.762Z,51.57
2023-05-14T09:17:37.667Z,51.62
2023-05-14T09:22:37.523Z,50.57
2023-05-14T09:27:37.471Z,48.85
2023-05-14T09:32:37.453Z,50.00
2023-05-14T09:37:37.339Z,49.25
2023-05-14T09:42:38.248Z,49.77
2023-05-14T09:47:37.366Z,49.22
2023-05-14T09:52:37.208Z,49.35
2023-05-14T09:57:37.090Z,50.27
2023-05-14T10:02:37.044Z,51.47
2023-05-14T10:07:36.983Z,51.89
2023-05-14T10:12:36.876Z,51.42
2023-05-14T10:17:36.938Z,49.92
2023-05-14T10:22:36.733Z,50.32
2023-05-14T10:27:36.779Z,48.13
2023-05-14T10:32:36.613Z,47.09
2023-05-14T10:37:37.625Z,47.86
2023-05-14T10:42:36.490Z,49.38
2023-05-14T10:47:36.431Z,48.78
2023-05-14T10:52:36.329Z,49.60
2023-05-14T10:57:36.300Z,49.82
2023-05-14T11:02:36.229Z,48.90
2023-05-14T11:07:36.213Z,48.68
2023-05-14T11:12:36.081Z,48.50
2023-05-14T11:17:36.067Z,48.13
2023-05-14T11:22:35.977Z,48.82
2023-05-14T11:27:35.896Z,49.87
2023-05-14T11:32:35.817Z,49.49
2023-05-14T11:37:35.779Z,49.97
2023-05-14T11:42:35.780Z,49.67
2023-05-14T11:47:35.673Z,50.04
2023-05-14T11:52:35.609Z,48.32
2023-05-14T11:57:35.548Z,49.37
2023-05-14T12:02:35.565Z,49.32
2023-05-14T12:07:35.347Z,48.68
2023-05-14T12:12:35.275Z,47.96
2023-05-14T12:17:35.229Z,48.60
2023-05-14T12:22:36.384Z,48.68
2023-05-14T12:27:35.061Z,46.26
2023-05-14T12:32:35.081Z,47.06
2023-05-14T12:37:34.974Z,46.84
2023-05-14T12:42:35.194Z,45.47
2023-05-14T12:47:35.102Z,44.17
2023-05-14T12:52:39.322Z,44.60
2023-05-14T12:57:34.754Z,45.26
2023-05-14T13:02:43.151Z,46.19
2023-05-14T13:07:35.550Z,46.28
2023-05-14T13:12:34.584Z,47.53
2023-05-14T13:17:34.626Z,48.43
2023-05-14T13:22:34.496Z,48.32
2023-05-14T13:27:34.279Z,47.33
2023-05-14T13:32:34.639Z,48.97
2023-05-14T13:37:34.212Z,48.29
2023-05-14T13:42:34.111Z,49.40
2023-05-14T13:47:34.078Z,48.60
2023-05-14T13:52:34.064Z,50.02
2023-05-14T13:57:33.892Z,49.19
2023-05-14T14:02:34.310Z,49.59
2023-05-14T14:07:34.047Z,49.40
2023-05-14T14:12:33.734Z,48.77
2023-05-14T14:17:34.408Z,49.07
2023-05-14T14:22:33.547Z,49.37
2023-05-14T14:27:34.448Z,50.20
2023-05-14T14:32:33.532Z,50.22
2023-05-14T14:37:33.359Z,51.32
2023-05-14T14:42:33.318Z,50.94
2023-05-14T14:47:33.242Z,51.44
2023-05-14T14:52:33.176Z,51.34
2023-05-14T14:57:33.068Z,51.04
2023-05-14T15:02:33.106Z,51.57
2023-05-14T15:07:33.050Z,51.64
2023-05-14T15:12:32.887Z,50.74
2023-05-14T15:17:33.218Z,51.14
2023-05-14T15:22:32.896Z,51.49
2023-05-14T15:27:32.713Z,51.59
2023-05-14T15:32:32.640Z,52.52
2023-05-14T15:37:33.529Z,53.52
2023-05-14T15:42:32.579Z,52.92
2023-05-14T15:47:32.462Z,53.52
2023-05-14T15:52:32.348Z,52.80
2023-05-14T15:57:32.305Z,52.49
2023-05-14T16:02:32.335Z,52.72
2023-05-14T16:07:32.176Z,53.55
2023-05-14T16:12:32.087Z,54.35
2023-05-14T16:17:32.053Z,54.55
2023-05-14T16:22:31.946Z,53.12
2023-05-14T16:27:32.127Z,52.75
2023-05-14T16:32:31.837Z,52.94
2023-05-14T16:37:32.776Z,54.20
2023-05-14T16:42:31.984Z,55.10
2023-05-14T16:47:31.657Z,55.80
2023-05-14T16:52:31.593Z,56.10
2023-05-14T16:57:32.302Z,57.21
2023-05-14T17:02:31.407Z,56.51
2023-05-14T17:07:31.349Z,57.17
2023-05-14T17:12:31.370Z,57.17
2023-05-14T17:17:31.259Z,58.07
2023-05-14T17:22:31.118Z,57.26
2023-05-14T17:27:32.822Z,58.20
2023-05-14T17:32:31.426Z,57.29
2023-05-14T17:37:31.081Z,57.97
2023-05-14T17:42:30.846Z,59.94
2023-05-14T17:47:30.810Z,60.36
2023-05-14T17:52:30.832Z,60.74
2023-05-14T17:57:30.721Z,60.64
2023-05-14T18:02:30.733Z,63.31
2023-05-14T18:07:30.746Z,61.44
2023-05-14T18:12:30.622Z,62.24
2023-05-14T18:17:30.649Z,61.65
2023-05-14T18:22:31.299Z,62.48
2023-05-14T18:27:30.266Z,62.48
2023-05-14T18:32:30.313Z,63.39
2023-05-14T18:37:31.046Z,64.02
2023-05-14T18:42:30.078Z,64.55
2023-05-14T18:47:30.016Z,65.36
2023-05-14T18:52:29.943Z,65.26
2023-05-14T18:57:30.176Z,65.36
2023-05-14T19:02:30.463Z,65.06
2023-05-14T19:07:29.725Z,64.35
2023-05-14T19:12:29.671Z,64.05
2023-05-14T19:17:29.685Z,64.35
2023-05-14T19:22:29.587Z,65.29
2023-05-14T19:27:29.466Z,66.39
2023-05-14T19:32:29.411Z,66.66
2023-05-14T19:37:29.316Z,66.63
2023-05-14T19:42:29.291Z,64.98
2023-05-14T19:47:29.238Z,66.53
2023-05-14T19:52:29.130Z,64.95
2023-05-14T19:57:29.031Z,66.25
2023-05-14T20:02:29.014Z,65.15
2023-05-14T20:07:28.902Z,67.97
2023-05-14T20:12:28.848Z,67.67
2023-05-14T20:17:28.808Z,67.33
2023-05-14T20:22:28.706Z,69.28
2023-05-14T20:27:28.646Z,67.23
2023-05-14T20:32:28.603Z,68.30
2023-05-14T20:37:28.498Z,69.31
2023-05-14T20:42:28.434Z,69.21
2023-05-14T20:47:28.397Z,67.86
2023-05-14T20:52:28.305Z,68.47
2023-05-14T20:57:28.254Z,67.83
2023-05-14T21:02:28.310Z,68.07
2023-05-14T21:07:28.888Z,71.88
2023-05-14T21:12:28.041Z,74.88
2023-05-14T21:17:28.014Z,73.73
2023-05-14T21:22:27.905Z,73.66
2023-05-14T21:27:27.840Z,75.90
2023-05-14T21:32:27.827Z,79.32
2023-05-14T21:37:27.706Z,79.12
2023-05-14T21:42:27.653Z,79.05
2023-05-14T21:47:27.641Z,80.58
2023-05-14T21:52:27.500Z,80.47
2023-05-14T21:57:28.452Z,81.09
2023-05-14T22:02:27.383Z,81.63
2023-05-14T22:07:27.321Z,82.38
2023-05-14T22:12:27.228Z,82.79
2023-05-14T22:17:27.185Z,82.40
2023-05-14T22:22:27.102Z,81.76
2023-05-14T22:27:27.019Z,81.76
2023-05-14T22:32:27.008Z,81.56
2023-05-14T22:37:26.890Z,81.25
2023-05-14T22:42:26.841Z,81.96
2023-05-14T22:47:26.871Z,80.60
2023-05-14T22:52:26.695Z,81.62
2023-05-14T22:57:26.625Z,81.25
2023-05-14T23:02:26.584Z,81.15
2023-05-14T23:07:26.507Z,81.86
2023-05-14T23:12:26.429Z,81.76
2023-05-14T23:17:26.433Z,79.69
2023-05-14T23:22:26.286Z,81.09
2023-05-14T23:27:26.223Z,81.79
2023-05-14T23:32:26.200Z,83.56
2023-05-14T23:37:26.078Z,83.40
2023-05-14T23:42:26.019Z,84.01
2023-05-14T23:47:25.980Z,82.34
2023-05-14T23:52:25.884Z,81.73
2023-05-14T23:57:25.812Z,80.84
